sensor_id;sensor_type;location;lat;lon;timestamp;P1;durP1;ratioP1;P2;durP2;ratioP2
17369;SDS011;8802;52.402;4.920;2023-04-24T00:01:59;0.75;;;0.60;;
17369;SDS011;8802;52.402;4.920;2023-04-24T00:04:26;0.82;;;0.73;;
17369;SDS011;8802;52.402;4.920;2023-04-24T00:06:53;1.27;;;1.05;;
17369;SDS011;8802;52.402;4.920;2023-04-24T00:09:22;1.00;;;0.60;;
17369;SDS011;8802;52.402;4.920;2023-04-24T00:11:49;2.05;;;0.63;;
17369;SDS011;8802;52.402;4.920;2023-04-24T00:14:17;1.10;;;0.90;;
17369;SDS011;8802;52.402;4.920;2023-04-24T00:16:44;1.55;;;0.68;;
17369;SDS011;8802;52.402;4.920;2023-04-24T00:19:11;0.93;;;0.60;;
17369;SDS011;8802;52.402;4.920;2023-04-24T00:21:38;1.98;;;0.63;;
17369;SDS011;8802;52.402;4.920;2023-04-24T00:24:06;1.70;;;0.65;;
17369;SDS011;8802;52.402;4.920;2023-04-24T00:26:34;0.60;;;0.50;;
17369;SDS011;8802;52.402;4.920;2023-04-24T00:29:00;1.20;;;0.30;;
17369;SDS011;8802;52.402;4.920;2023-04-24T00:31:29;1.10;;;0.50;;
17369;SDS011;8802;52.402;4.920;2023-04-24T00:33:56;1.40;;;0.70;;
17369;SDS011;8802;52.402;4.920;2023-04-24T00:36:23;1.35;;;0.60;;
17369;SDS011;8802;52.402;4.920;2023-04-24T00:38:52;1.30;;;0.70;;
17369;SDS011;8802;52.402;4.920;2023-04-24T00:41:19;1.75;;;1.65;;
17369;SDS011;8802;52.402;4.920;2023-04-24T00:43:46;2.65;;;1.63;;
17369;SDS011;8802;52.402;4.920;2023-04-24T00:46:12;2.50;;;1.92;;
17369;SDS011;8802;52.402;4.920;2023-04-24T00:48:41;2.35;;;1.75;;
17369;SDS011;8802;52.402;4.920;2023-04-24T00:51:09;3.25;;;2.13;;
17369;SDS011;8802;52.402;4.920;2023-04-24T00:53:36;2.55;;;1.58;;
17369;SDS011;8802;52.402;4.920;2023-04-24T00:56:02;2.28;;;1.63;;
17369;SDS011;8802;52.402;4.920;2023-04-24T00:58:31;1.90;;;1.33;;
17369;SDS011;8802;52.402;4.920;2023-04-24T01:00:58;4.68;;;1.73;;
17369;SDS011;8802;52.402;4.920;2023-04-24T01:03:26;2.22;;;1.70;;
17369;SDS011;8802;52.402;4.920;2023-04-24T01:05:56;3.60;;;2.20;;
17369;SDS011;8802;52.402;4.920;2023-04-24T01:08:24;2.58;;;2.38;;
17369;SDS011;8802;52.402;4.920;2023-04-24T01:10:52;3.67;;;3.38;;
17369;SDS011;8802;52.402;4.920;2023-04-24T01:13:20;3.50;;;3.20;;
17369;SDS011;8802;52.402;4.920;2023-04-24T01:15:47;3.95;;;3.60;;
17369;SDS011;8802;52.402;4.920;2023-04-24T01:18:14;4.13;;;2.85;;
17369;SDS011;8802;52.402;4.920;2023-04-24T01:20:42;3.80;;;3.30;;
17369;SDS011;8802;52.402;4.920;2023-04-24T01:23:13;2.58;;;1.95;;
17369;SDS011;8802;52.402;4.920;2023-04-24T01:25:40;1.98;;;1.75;;
17369;SDS011;8802;52.402;4.920;2023-04-24T01:28:07;1.95;;;1.30;;
17369;SDS011;8802;52.402;4.920;2023-04-24T01:30:34;1.63;;;1.05;;
17369;SDS011;8802;52.402;4.920;2023-04-24T01:33:01;2.22;;;1.13;;
17369;SDS011;8802;52.402;4.920;2023-04-24T01:35:28;2.50;;;1.10;;
17369;SDS011;8802;52.402;4.920;2023-04-24T01:37:55;1.85;;;0.95;;
17369;SDS011;8802;52.402;4.920;2023-04-24T01:40:24;2.47;;;0.95;;
17369;SDS011;8802;52.402;4.920;2023-04-24T01:42:50;2.55;;;0.98;;
17369;SDS011;8802;52.402;4.920;2023-04-24T01:45:18;1.42;;;0.80;;
17369;SDS011;8802;52.402;4.920;2023-04-24T01:47:45;1.17;;;0.70;;
17369;SDS011;8802;52.402;4.920;2023-04-24T01:50:13;0.98;;;0.50;;
17369;SDS011;8802;52.402;4.920;2023-04-24T01:52:41;0.70;;;0.63;;
17369;SDS011;8802;52.402;4.920;2023-04-24T01:55:08;2.00;;;0.70;;
17369;SDS011;8802;52.402;4.920;2023-04-24T01:57:37;2.20;;;0.70;;
17369;SDS011;8802;52.402;4.920;2023-04-24T02:00:05;1.30;;;0.73;;
17369;SDS011;8802;52.402;4.920;2023-04-24T02:02:33;1.73;;;0.70;;
17369;SDS011;8802;52.402;4.920;2023-04-24T02:05:00;3.25;;;0.70;;
17369;SDS011;8802;52.402;4.920;2023-04-24T02:07:27;3.10;;;0.55;;
17369;SDS011;8802;52.402;4.920;2023-04-24T02:09:54;1.00;;;0.50;;
17369;SDS011;8802;52.402;4.920;2023-04-24T02:12:21;1.95;;;0.63;;
17369;SDS011;8802;52.402;4.920;2023-04-24T02:14:49;1.42;;;0.45;;
17369;SDS011;8802;52.402;4.920;2023-04-24T02:17:16;1.75;;;0.40;;
17369;SDS011;8802;52.402;4.920;2023-04-24T02:19:44;1.52;;;0.38;;
17369;SDS011;8802;52.402;4.920;2023-04-24T02:22:11;3.20;;;1.02;;
17369;SDS011;8802;52.402;4.920;2023-04-24T02:24:38;0.98;;;0.40;;
17369;SDS011;8802;52.402;4.920;2023-04-24T02:27:05;1.55;;;1.00;;
17369;SDS011;8802;52.402;4.920;2023-04-24T02:29:32;0.80;;;0.40;;
17369;SDS011;8802;52.402;4.920;2023-04-24T02:32:00;0.90;;;0.52;;
17369;SDS011;8802;52.402;4.920;2023-04-24T02:34:27;1.48;;;0.40;;
17369;SDS011;8802;52.402;4.920;2023-04-24T02:36:54;0.90;;;0.30;;
17369;SDS011;8802;52.402;4.920;2023-04-24T02:39:21;1.38;;;0.73;;
17369;SDS011;8802;52.402;4.920;2023-04-24T02:41:48;0.40;;;0.30;;
17369;SDS011;8802;52.402;4.920;2023-04-24T02:44:15;1.55;;;0.50;;
17369;SDS011;8802;52.402;4.920;2023-04-24T02:46:42;2.20;;;0.30;;
17369;SDS011;8802;52.402;4.920;2023-04-24T02:49:11;0.93;;;0.20;;
17369;SDS011;8802;52.402;4.920;2023-04-24T02:51:37;1.10;;;0.30;;
17369;SDS011;8802;52.402;4.920;2023-04-24T02:54:06;0.80;;;0.32;;
17369;SDS011;8802;52.402;4.920;2023-04-24T02:56:33;0.63;;;0.38;;
17369;SDS011;8802;52.402;4.920;2023-04-24T02:59:00;0.30;;;0.10;;
17369;SDS011;8802;52.402;4.920;2023-04-24T03:01:27;1.73;;;0.30;;
17369;SDS011;8802;52.402;4.920;2023-04-24T03:03:54;1.02;;;0.20;;
17369;SDS011;8802;52.402;4.920;2023-04-24T03:06:22;1.17;;;0.30;;
17369;SDS011;8802;52.402;4.920;2023-04-24T03:08:49;0.68;;;0.17;;
17369;SDS011;8802;52.402;4.920;2023-04-24T03:11:16;0.40;;;0.20;;
17369;SDS011;8802;52.402;4.920;2023-04-24T03:13:42;0.47;;;0.30;;
17369;SDS011;8802;52.402;4.920;2023-04-24T03:16:09;0.77;;;0.30;;
17369;SDS011;8802;52.402;4.920;2023-04-24T03:18:36;0.47;;;0.28;;
17369;SDS011;8802;52.402;4.920;2023-04-24T03:21:03;1.80;;;0.30;;
17369;SDS011;8802;52.402;4.920;2023-04-24T03:23:31;1.45;;;0.40;;
17369;SDS011;8802;52.402;4.920;2023-04-24T03:25:58;0.98;;;0.30;;
17369;SDS011;8802;52.402;4.920;2023-04-24T03:28:25;0.60;;;0.30;;
17369;SDS011;8802;52.402;4.920;2023-04-24T03:30:52;0.63;;;0.22;;
17369;SDS011;8802;52.402;4.920;2023-04-24T03:33:19;0.47;;;0.30;;
17369;SDS011;8802;52.402;4.920;2023-04-24T03:35:46;0.43;;;0.30;;
17369;SDS011;8802;52.402;4.920;2023-04-24T03:38:13;0.60;;;0.20;;
17369;SDS011;8802;52.402;4.920;2023-04-24T03:40:41;1.40;;;0.40;;
17369;SDS011;8802;52.402;4.920;2023-04-24T03:43:08;0.70;;;0.30;;
17369;SDS011;8802;52.402;4.920;2023-04-24T03:45:35;1.50;;;0.40;;
17369;SDS011;8802;52.402;4.920;2023-04-24T03:48:01;0.60;;;0.32;;
17369;SDS011;8802;52.402;4.920;2023-04-24T03:50:28;1.02;;;0.30;;
17369;SDS011;8802;52.402;4.920;2023-04-24T03:52:55;0.85;;;0.30;;
17369;SDS011;8802;52.402;4.920;2023-04-24T03:55:22;0.47;;;0.30;;
17369;SDS011;8802;52.402;4.920;2023-04-24T03:57:51;0.98;;;0.30;;
17369;SDS011;8802;52.402;4.920;2023-04-24T04:00:18;0.55;;;0.30;;
17369;SDS011;8802;52.402;4.920;2023-04-24T04:02:46;1.85;;;0.30;;
17369;SDS011;8802;52.402;4.920;2023-04-24T04:05:12;0.45;;;0.20;;
17369;SDS011;8802;52.402;4.920;2023-04-24T04:07:39;0.98;;;0.30;;
17369;SDS011;8802;52.402;4.920;2023-04-24T04:10:07;2.00;;;0.30;;
17369;SDS011;8802;52.402;4.920;2023-04-24T04:12:34;0.82;;;0.38;;
17369;SDS011;8802;52.402;4.920;2023-04-24T04:15:02;0.47;;;0.30;;
17369;SDS011;8802;52.402;4.920;2023-04-24T04:17:31;0.75;;;0.40;;
17369;SDS011;8802;52.402;4.920;2023-04-24T04:19:58;1.70;;;0.60;;
17369;SDS011;8802;52.402;4.920;2023-04-24T04:22:25;1.33;;;0.70;;
17369;SDS011;8802;52.402;4.920;2023-04-24T04:24:51;1.67;;;0.57;;
17369;SDS011;8802;52.402;4.920;2023-04-24T04:27:18;2.15;;;0.68;;
17369;SDS011;8802;52.402;4.920;2023-04-24T04:29:46;2.20;;;0.65;;
17369;SDS011;8802;52.402;4.920;2023-04-24T04:32:14;1.27;;;0.52;;
17369;SDS011;8802;52.402;4.920;2023-04-24T04:34:42;1.40;;;0.95;;
17369;SDS011;8802;52.402;4.920;2023-04-24T04:37:10;1.92;;;1.35;;
17369;SDS011;8802;52.402;4.920;2023-04-24T04:39:37;1.73;;;1.15;;
17369;SDS011;8802;52.402;4.920;2023-04-24T04:42:04;2.33;;;1.17;;
17369;SDS011;8802;52.402;4.920;2023-04-24T04:44:31;1.10;;;0.95;;
17369;SDS011;8802;52.402;4.920;2023-04-24T04:47:00;1.13;;;0.80;;
17369;SDS011;8802;52.402;4.920;2023-04-24T04:49:31;0.57;;;0.47;;
17369;SDS011;8802;52.402;4.920;2023-04-24T04:51:59;2.28;;;0.75;;
17369;SDS011;8802;52.402;4.920;2023-04-24T04:54:26;0.90;;;0.52;;
17369;SDS011;8802;52.402;4.920;2023-04-24T04:56:52;1.75;;;0.65;;
17369;SDS011;8802;52.402;4.920;2023-04-24T04:59:19;1.13;;;0.60;;
17369;SDS011;8802;52.402;4.920;2023-04-24T05:01:46;0.85;;;0.60;;
17369;SDS011;8802;52.402;4.920;2023-04-24T05:04:13;1.95;;;0.68;;
17369;SDS011;8802;52.402;4.920;2023-04-24T05:06:41;2.00;;;0.95;;
17369;SDS011;8802;52.402;4.920;2023-04-24T05:09:08;2.50;;;1.23;;
17369;SDS011;8802;52.402;4.920;2023-04-24T05:11:35;3.35;;;1.52;;
17369;SDS011;8802;52.402;4.920;2023-04-24T05:14:02;2.95;;;1.48;;
17369;SDS011;8802;52.402;4.920;2023-04-24T05:16:29;2.10;;;1.20;;
17369;SDS011;8802;52.402;4.920;2023-04-24T05:18:56;1.48;;;1.20;;
17369;SDS011;8802;52.402;4.920;2023-04-24T05:21:23;2.22;;;1.92;;
17369;SDS011;8802;52.402;4.920;2023-04-24T05:23:51;3.20;;;1.85;;
17369;SDS011;8802;52.402;4.920;2023-04-24T05:26:18;4.05;;;2.95;;
17369;SDS011;8802;52.402;4.920;2023-04-24T05:28:45;7.78;;;4.63;;
17369;SDS011;8802;52.402;4.920;2023-04-24T05:31:12;7.65;;;4.80;;
17369;SDS011;8802;52.402;4.920;2023-04-24T05:33:39;6.97;;;5.35;;
17369;SDS011;8802;52.402;4.920;2023-04-24T05:36:06;8.68;;;7.13;;
17369;SDS011;8802;52.402;4.920;2023-04-24T05:38:33;8.45;;;7.43;;
17369;SDS011;8802;52.402;4.920;2023-04-24T05:41:01;9.43;;;7.70;;
17369;SDS011;8802;52.402;4.920;2023-04-24T05:43:28;10.85;;;9.00;;
17369;SDS011;8802;52.402;4.920;2023-04-24T05:45:55;11.80;;;8.02;;
17369;SDS011;8802;52.402;4.920;2023-04-24T05:48:22;12.02;;;10.32;;
17369;SDS011;8802;52.402;4.920;2023-04-24T05:50:49;11.65;;;10.45;;
17369;SDS011;8802;52.402;4.920;2023-04-24T05:53:17;12.50;;;9.88;;
17369;SDS011;8802;52.402;4.920;2023-04-24T05:55:44;14.38;;;11.55;;
17369;SDS011;8802;52.402;4.920;2023-04-24T05:58:12;14.00;;;10.27;;
17369;SDS011;8802;52.402;4.920;2023-04-24T06:00:40;12.73;;;10.30;;
17369;SDS011;8802;52.402;4.920;2023-04-24T06:03:08;13.90;;;9.98;;
17369;SDS011;8802;52.402;4.920;2023-04-24T06:05:35;11.02;;;8.80;;
17369;SDS011;8802;52.402;4.920;2023-04-24T06:08:02;16.45;;;10.75;;
17369;SDS011;8802;52.402;4.920;2023-04-24T06:10:29;15.13;;;11.23;;
17369;SDS011;8802;52.402;4.920;2023-04-24T06:12:55;15.23;;;10.40;;
17369;SDS011;8802;52.402;4.920;2023-04-24T06:15:27;13.07;;;10.43;;
17369;SDS011;8802;52.402;4.920;2023-04-24T06:17:55;11.32;;;9.07;;
17369;SDS011;8802;52.402;4.920;2023-04-24T06:20:22;9.40;;;8.23;;
17369;SDS011;8802;52.402;4.920;2023-04-24T06:22:49;10.65;;;8.27;;
17369;SDS011;8802;52.402;4.920;2023-04-24T06:25:16;12.63;;;8.57;;
17369;SDS011;8802;52.402;4.920;2023-04-24T06:27:44;10.05;;;8.18;;
17369;SDS011;8802;52.402;4.920;2023-04-24T06:30:11;11.90;;;7.38;;
17369;SDS011;8802;52.402;4.920;2023-04-24T06:32:40;10.90;;;8.00;;
17369;SDS011;8802;52.402;4.920;2023-04-24T06:35:07;12.32;;;8.02;;
17369;SDS011;8802;52.402;4.920;2023-04-24T06:37:35;11.60;;;8.85;;
17369;SDS011;8802;52.402;4.920;2023-04-24T06:40:02;14.80;;;8.80;;
17369;SDS011;8802;52.402;4.920;2023-04-24T06:42:29;13.65;;;9.40;;
17369;SDS011;8802;52.402;4.920;2023-04-24T06:44:56;15.02;;;10.05;;
17369;SDS011;8802;52.402;4.920;2023-04-24T06:47:22;11.32;;;9.10;;
17369;SDS011;8802;52.402;4.920;2023-04-24T06:49:51;15.43;;;9.30;;
17369;SDS011;8802;52.402;4.920;2023-04-24T06:52:18;12.95;;;9.07;;
17369;SDS011;8802;52.402;4.920;2023-04-24T06:54:45;11.45;;;8.40;;
17369;SDS011;8802;52.402;4.920;2023-04-24T06:57:12;13.27;;;9.45;;
17369;SDS011;8802;52.402;4.920;2023-04-24T06:59:39;12.50;;;7.40;;
17369;SDS011;8802;52.402;4.920;2023-04-24T07:02:06;12.10;;;7.18;;
17369;SDS011;8802;52.402;4.920;2023-04-24T07:04:32;10.93;;;6.70;;
17369;SDS011;8802;52.402;4.920;2023-04-24T07:07:01;11.23;;;7.40;;
17369;SDS011;8802;52.402;4.920;2023-04-24T07:09:29;14.10;;;6.90;;
17369;SDS011;8802;52.402;4.920;2023-04-24T07:11:56;8.95;;;7.20;;
17369;SDS011;8802;52.402;4.920;2023-04-24T07:14:23;12.05;;;6.78;;
17369;SDS011;8802;52.402;4.920;2023-04-24T07:16:50;10.88;;;6.82;;
17369;SDS011;8802;52.402;4.920;2023-04-24T07:19:17;9.80;;;6.00;;
17369;SDS011;8802;52.402;4.920;2023-04-24T07:21:44;11.93;;;5.78;;
17369;SDS011;8802;52.402;4.920;2023-04-24T07:24:12;19.75;;;5.93;;
17369;SDS011;8802;52.402;4.920;2023-04-24T07:26:39;13.45;;;5.63;;
17369;SDS011;8802;52.402;4.920;2023-04-24T07:29:06;13.00;;;5.38;;
17369;SDS011;8802;52.402;4.920;2023-04-24T07:31:33;11.05;;;4.53;;
17369;SDS011;8802;52.402;4.920;2023-04-24T07:34:00;10.27;;;4.38;;
17369;SDS011;8802;52.402;4.920;2023-04-24T07:36:27;12.93;;;4.10;;
17369;SDS011;8802;52.402;4.920;2023-04-24T07:38:54;10.45;;;4.80;;
17369;SDS011;8802;52.402;4.920;2023-04-24T07:41:23;12.02;;;4.05;;
17369;SDS011;8802;52.402;4.920;2023-04-24T07:43:52;11.15;;;3.55;;
17369;SDS011;8802;52.402;4.920;2023-04-24T07:46:19;15.20;;;4.57;;
17369;SDS011;8802;52.402;4.920;2023-04-24T07:48:46;10.25;;;3.30;;
17369;SDS011;8802;52.402;4.920;2023-04-24T07:51:13;8.13;;;2.72;;
17369;SDS011;8802;52.402;4.920;2023-04-24T07:53:40;7.57;;;2.83;;
17369;SDS011;8802;52.402;4.920;2023-04-24T07:56:08;9.80;;;2.80;;
17369;SDS011;8802;52.402;4.920;2023-04-24T07:58:36;8.82;;;2.95;;
17369;SDS011;8802;52.402;4.920;2023-04-24T08:01:03;10.60;;;2.63;;
17369;SDS011;8802;52.402;4.920;2023-04-24T08:03:30;12.55;;;3.17;;
17369;SDS011;8802;52.402;4.920;2023-04-24T08:05:57;9.82;;;3.05;;
17369;SDS011;8802;52.402;4.920;2023-04-24T08:08:24;11.93;;;3.15;;
17369;SDS011;8802;52.402;4.920;2023-04-24T08:10:51;8.75;;;3.00;;
17369;SDS011;8802;52.402;4.920;2023-04-24T08:13:18;10.43;;;3.08;;
17369;SDS011;8802;52.402;4.920;2023-04-24T08:15:46;11.40;;;3.13;;
17369;SDS011;8802;52.402;4.920;2023-04-24T08:18:13;12.48;;;2.88;;
17369;SDS011;8802;52.402;4.920;2023-04-24T08:20:40;6.53;;;2.67;;
17369;SDS011;8802;52.402;4.920;2023-04-24T08:23:08;6.53;;;2.33;;
17369;SDS011;8802;52.402;4.920;2023-04-24T08:25:35;10.02;;;2.45;;
17369;SDS011;8802;52.402;4.920;2023-04-24T08:28:02;10.63;;;3.17;;
17369;SDS011;8802;52.402;4.920;2023-04-24T08:30:29;6.47;;;2.35;;
17369;SDS011;8802;52.402;4.920;2023-04-24T08:32:58;8.85;;;2.67;;
17369;SDS011;8802;52.402;4.920;2023-04-24T08:35:25;6.78;;;2.08;;
17369;SDS011;8802;52.402;4.920;2023-04-24T08:37:52;5.32;;;2.15;;
17369;SDS011;8802;52.402;4.920;2023-04-24T08:40:20;11.65;;;2.65;;
17369;SDS011;8802;52.402;4.920;2023-04-24T08:42:52;8.32;;;2.33;;
17369;SDS011;8802;52.402;4.920;2023-04-24T08:45:20;6.93;;;2.20;;
17369;SDS011;8802;52.402;4.920;2023-04-24T08:47:47;7.47;;;2.35;;
17369;SDS011;8802;52.402;4.920;2023-04-24T08:50:16;4.72;;;2.50;;
17369;SDS011;8802;52.402;4.920;2023-04-24T08:52:43;10.07;;;2.42;;
17369;SDS011;8802;52.402;4.920;2023-04-24T08:55:10;7.55;;;1.90;;
17369;SDS011;8802;52.402;4.920;2023-04-24T08:57:37;6.93;;;2.53;;
17369;SDS011;8802;52.402;4.920;2023-04-24T09:00:05;8.07;;;2.00;;
17369;SDS011;8802;52.402;4.920;2023-04-24T09:02:33;12.20;;;2.70;;
17369;SDS011;8802;52.402;4.920;2023-04-24T09:05:01;5.97;;;2.10;;
17369;SDS011;8802;52.402;4.920;2023-04-24T09:07:29;12.25;;;2.55;;
17369;SDS011;8802;52.402;4.920;2023-04-24T09:09:58;4.80;;;1.75;;
17369;SDS011;8802;52.402;4.920;2023-04-24T09:12:27;5.18;;;2.00;;
17369;SDS011;8802;52.402;4.920;2023-04-24T09:14:54;7.85;;;2.15;;
17369;SDS011;8802;52.402;4.920;2023-04-24T09:17:22;6.55;;;1.85;;
17369;SDS011;8802;52.402;4.920;2023-04-24T09:19:52;5.57;;;1.90;;
17369;SDS011;8802;52.402;4.920;2023-04-24T09:22:18;5.70;;;2.10;;
17369;SDS011;8802;52.402;4.920;2023-04-24T09:24:48;6.45;;;1.85;;
17369;SDS011;8802;52.402;4.920;2023-04-24T09:27:28;7.53;;;1.95;;
17369;SDS011;8802;52.402;4.920;2023-04-24T09:29:55;7.25;;;2.13;;
17369;SDS011;8802;52.402;4.920;2023-04-24T09:32:23;7.53;;;2.08;;
17369;SDS011;8802;52.402;4.920;2023-04-24T09:35:04;6.82;;;2.05;;
17369;SDS011;8802;52.402;4.920;2023-04-24T09:37:35;6.30;;;2.00;;
17369;SDS011;8802;52.402;4.920;2023-04-24T09:40:14;6.90;;;2.28;;
17369;SDS011;8802;52.402;4.920;2023-04-24T09:42:45;6.70;;;2.25;;
17369;SDS011;8802;52.402;4.920;2023-04-24T09:45:17;7.88;;;2.47;;
17369;SDS011;8802;52.402;4.920;2023-04-24T09:47:44;9.77;;;2.03;;
17369;SDS011;8802;52.402;4.920;2023-04-24T09:50:12;5.15;;;1.95;;
17369;SDS011;8802;52.402;4.920;2023-04-24T09:52:41;5.35;;;1.70;;
17369;SDS011;8802;52.402;4.920;2023-04-24T09:55:18;5.97;;;2.08;;
17369;SDS011;8802;52.402;4.920;2023-04-24T09:57:49;3.67;;;1.63;;
17369;SDS011;8802;52.402;4.920;2023-04-24T10:00:23;8.00;;;1.80;;
17369;SDS011;8802;52.402;4.920;2023-04-24T10:02:55;3.92;;;1.40;;
17369;SDS011;8802;52.402;4.920;2023-04-24T10:05:23;6.45;;;1.75;;
17369;SDS011;8802;52.402;4.920;2023-04-24T10:07:51;3.92;;;1.73;;
17369;SDS011;8802;52.402;4.920;2023-04-24T10:10:23;2.95;;;1.40;;
17369;SDS011;8802;52.402;4.920;2023-04-24T10:12:50;4.60;;;1.35;;
17369;SDS011;8802;52.402;4.920;2023-04-24T10:15:18;3.15;;;1.00;;
17369;SDS011;8802;52.402;4.920;2023-04-24T10:17:46;3.60;;;1.25;;
17369;SDS011;8802;52.402;4.920;2023-04-24T10:20:17;5.43;;;1.15;;
17369;SDS011;8802;52.402;4.920;2023-04-24T10:22:46;3.55;;;1.10;;
17369;SDS011;8802;52.402;4.920;2023-04-24T10:25:16;3.60;;;1.75;;
17369;SDS011;8802;52.402;4.920;2023-04-24T10:27:46;3.67;;;0.90;;
17369;SDS011;8802;52.402;4.920;2023-04-24T10:30:14;4.78;;;1.33;;
17369;SDS011;8802;52.402;4.920;2023-04-24T10:32:41;3.33;;;1.27;;
17369;SDS011;8802;52.402;4.920;2023-04-24T10:35:08;3.58;;;1.27;;
17369;SDS011;8802;52.402;4.920;2023-04-24T10:37:40;3.83;;;1.25;;
17369;SDS011;8802;52.402;4.920;2023-04-24T10:40:09;4.53;;;1.48;;
17369;SDS011;8802;52.402;4.920;2023-04-24T10:42:39;5.88;;;1.73;;
17369;SDS011;8802;52.402;4.920;2023-04-24T10:45:08;4.00;;;1.50;;
17369;SDS011;8802;52.402;4.920;2023-04-24T10:47:43;4.03;;;1.48;;
17369;SDS011;8802;52.402;4.920;2023-04-24T10:50:17;3.88;;;1.30;;
17369;SDS011;8802;52.402;4.920;2023-04-24T10:52:45;4.97;;;1.38;;
17369;SDS011;8802;52.402;4.920;2023-04-24T10:55:12;6.18;;;1.38;;
17369;SDS011;8802;52.402;4.920;2023-04-24T10:57:40;7.63;;;1.50;;
17369;SDS011;8802;52.402;4.920;2023-04-24T11:00:29;4.57;;;1.38;;
17369;SDS011;8802;52.402;4.920;2023-04-24T11:02:56;4.50;;;0.90;;
17369;SDS011;8802;52.402;4.920;2023-04-24T11:05:48;6.05;;;1.10;;
17369;SDS011;8802;52.402;4.920;2023-04-24T11:08:21;4.40;;;1.17;;
17369;SDS011;8802;52.402;4.920;2023-04-24T11:10:57;3.47;;;0.90;;
17369;SDS011;8802;52.402;4.920;2023-04-24T11:13:25;5.20;;;1.02;;
17369;SDS011;8802;52.402;4.920;2023-04-24T11:16:15;4.40;;;1.20;;
17369;SDS011;8802;52.402;4.920;2023-04-24T11:18:50;5.30;;;1.20;;
17369;SDS011;8802;52.402;4.920;2023-04-24T11:21:19;5.53;;;1.13;;
17369;SDS011;8802;52.402;4.920;2023-04-24T11:23:48;5.68;;;1.42;;
17369;SDS011;8802;52.402;4.920;2023-04-24T11:26:17;5.05;;;1.13;;
17369;SDS011;8802;52.402;4.920;2023-04-24T11:28:48;6.35;;;1.30;;
17369;SDS011;8802;52.402;4.920;2023-04-24T11:31:36;5.07;;;1.17;;
17369;SDS011;8802;52.402;4.920;2023-04-24T11:34:07;2.33;;;0.70;;
17369;SDS011;8802;52.402;4.920;2023-04-24T11:36:35;1.77;;;0.77;;
17369;SDS011;8802;52.402;4.920;2023-04-24T11:39:02;3.30;;;0.88;;
17369;SDS011;8802;52.402;4.920;2023-04-24T11:41:30;1.60;;;0.73;;
17369;SDS011;8802;52.402;4.920;2023-04-24T11:43:57;5.22;;;1.27;;
17369;SDS011;8802;52.402;4.920;2023-04-24T11:46:27;6.13;;;1.70;;
17369;SDS011;8802;52.402;4.920;2023-04-24T11:48:56;8.57;;;1.98;;
17369;SDS011;8802;52.402;4.920;2023-04-24T11:51:24;8.40;;;1.80;;
17369;SDS011;8802;52.402;4.920;2023-04-24T11:53:51;5.43;;;1.50;;
17369;SDS011;8802;52.402;4.920;2023-04-24T11:56:19;6.90;;;1.67;;
17369;SDS011;8802;52.402;4.920;2023-04-24T11:58:47;5.65;;;2.13;;
17369;SDS011;8802;52.402;4.920;2023-04-24T12:01:14;5.50;;;1.85;;
17369;SDS011;8802;52.402;4.920;2023-04-24T12:03:41;4.30;;;1.58;;
17369;SDS011;8802;52.402;4.920;2023-04-24T12:06:14;6.40;;;1.77;;
17369;SDS011;8802;52.402;4.920;2023-04-24T12:08:41;7.10;;;1.70;;
17369;SDS011;8802;52.402;4.920;2023-04-24T12:11:14;4.38;;;1.83;;
17369;SDS011;8802;52.402;4.920;2023-04-24T12:13:43;4.78;;;1.80;;
17369;SDS011;8802;52.402;4.920;2023-04-24T12:16:11;6.22;;;1.88;;
17369;SDS011;8802;52.402;4.920;2023-04-24T12:18:41;4.97;;;1.80;;
17369;SDS011;8802;52.402;4.920;2023-04-24T12:21:18;5.57;;;2.05;;
17369;SDS011;8802;52.402;4.920;2023-04-24T12:23:45;6.05;;;2.03;;
17369;SDS011;8802;52.402;4.920;2023-04-24T12:26:14;7.65;;;2.25;;
17369;SDS011;8802;52.402;4.920;2023-04-24T12:28:45;10.32;;;2.42;;
17369;SDS011;8802;52.402;4.920;2023-04-24T12:31:14;8.20;;;2.70;;
17369;SDS011;8802;52.402;4.920;2023-04-24T12:33:41;8.02;;;2.65;;
17369;SDS011;8802;52.402;4.920;2023-04-24T12:36:09;8.77;;;2.55;;
17369;SDS011;8802;52.402;4.920;2023-04-24T12:38:39;10.23;;;2.55;;
17369;SDS011;8802;52.402;4.920;2023-04-24T12:41:11;9.77;;;2.60;;
17369;SDS011;8802;52.402;4.920;2023-04-24T12:43:50;7.80;;;2.38;;
17369;SDS011;8802;52.402;4.920;2023-04-24T12:46:17;7.93;;;2.53;;
17369;SDS011;8802;52.402;4.920;2023-04-24T12:48:44;6.63;;;2.47;;
17369;SDS011;8802;52.402;4.920;2023-04-24T12:51:11;10.80;;;2.78;;
17369;SDS011;8802;52.402;4.920;2023-04-24T12:53:37;9.70;;;2.63;;
17369;SDS011;8802;52.402;4.920;2023-04-24T12:56:06;10.10;;;3.13;;
17369;SDS011;8802;52.402;4.920;2023-04-24T12:58:33;9.32;;;2.95;;
17369;SDS011;8802;52.402;4.920;2023-04-24T13:00:59;9.07;;;2.70;;
17369;SDS011;8802;52.402;4.920;2023-04-24T13:03:27;12.13;;;2.85;;
17369;SDS011;8802;52.402;4.920;2023-04-24T13:05:54;15.40;;;3.25;;
17369;SDS011;8802;52.402;4.920;2023-04-24T13:08:21;9.90;;;2.95;;
17369;SDS011;8802;52.402;4.920;2023-04-24T13:10:49;14.02;;;3.38;;
17369;SDS011;8802;52.402;4.920;2023-04-24T13:13:17;13.00;;;3.72;;
17369;SDS011;8802;52.402;4.920;2023-04-24T13:15:43;9.40;;;3.40;;
17369;SDS011;8802;52.402;4.920;2023-04-24T13:18:10;15.27;;;3.58;;
17369;SDS011;8802;52.402;4.920;2023-04-24T13:20:37;11.25;;;4.05;;
17369;SDS011;8802;52.402;4.920;2023-04-24T13:23:06;8.20;;;3.05;;
17369;SDS011;8802;52.402;4.920;2023-04-24T13:25:34;7.60;;;2.78;;
17369;SDS011;8802;52.402;4.920;2023-04-24T13:28:03;6.45;;;2.00;;
17369;SDS011;8802;52.402;4.920;2023-04-24T13:30:30;6.40;;;2.08;;
17369;SDS011;8802;52.402;4.920;2023-04-24T13:32:58;5.43;;;2.65;;
17369;SDS011;8802;52.402;4.920;2023-04-24T13:35:25;6.53;;;2.85;;
17369;SDS011;8802;52.402;4.920;2023-04-24T13:37:51;10.02;;;2.45;;
17369;SDS011;8802;52.402;4.920;2023-04-24T13:40:18;8.63;;;2.75;;
17369;SDS011;8802;52.402;4.920;2023-04-24T13:42:45;9.95;;;3.20;;
17369;SDS011;8802;52.402;4.920;2023-04-24T13:45:13;7.75;;;2.80;;
17369;SDS011;8802;52.402;4.920;2023-04-24T13:47:40;10.90;;;2.83;;
17369;SDS011;8802;52.402;4.920;2023-04-24T13:50:08;6.85;;;3.00;;
17369;SDS011;8802;52.402;4.920;2023-04-24T13:52:35;10.70;;;3.72;;
17369;SDS011;8802;52.402;4.920;2023-04-24T13:55:02;7.35;;;2.65;;
17369;SDS011;8802;52.402;4.920;2023-04-24T13:57:29;9.07;;;2.72;;
17369;SDS011;8802;52.402;4.920;2023-04-24T13:59:57;9.43;;;2.88;;
17369;SDS011;8802;52.402;4.920;2023-04-24T14:02:27;7.07;;;2.05;;
17369;SDS011;8802;52.402;4.920;2023-04-24T14:04:54;7.35;;;2.20;;
17369;SDS011;8802;52.402;4.920;2023-04-24T14:07:21;10.32;;;2.42;;
17369;SDS011;8802;52.402;4.920;2023-04-24T14:09:48;9.60;;;2.47;;
17369;SDS011;8802;52.402;4.920;2023-04-24T14:12:15;7.63;;;2.67;;
17369;SDS011;8802;52.402;4.920;2023-04-24T14:14:44;8.23;;;2.80;;
17369;SDS011;8802;52.402;4.920;2023-04-24T14:17:13;9.30;;;2.78;;
17369;SDS011;8802;52.402;4.920;2023-04-24T14:19:41;8.98;;;2.88;;
17369;SDS011;8802;52.402;4.920;2023-04-24T14:22:08;10.35;;;3.47;;
17369;SDS011;8802;52.402;4.920;2023-04-24T14:24:35;10.30;;;3.53;;
17369;SDS011;8802;52.402;4.920;2023-04-24T14:27:02;10.35;;;3.20;;
17369;SDS011;8802;52.402;4.920;2023-04-24T14:29:29;15.90;;;3.70;;
17369;SDS011;8802;52.402;4.920;2023-04-24T14:31:56;9.48;;;3.58;;
17369;SDS011;8802;52.402;4.920;2023-04-24T14:34:23;9.65;;;3.08;;
17369;SDS011;8802;52.402;4.920;2023-04-24T14:36:51;9.73;;;3.50;;
17369;SDS011;8802;52.402;4.920;2023-04-24T14:39:18;10.45;;;3.67;;
17369;SDS011;8802;52.402;4.920;2023-04-24T14:41:45;8.38;;;3.33;;
17369;SDS011;8802;52.402;4.920;2023-04-24T14:44:12;12.68;;;3.65;;
17369;SDS011;8802;52.402;4.920;2023-04-24T14:46:39;12.25;;;4.60;;
17369;SDS011;8802;52.402;4.920;2023-04-24T14:49:06;12.25;;;4.05;;
17369;SDS011;8802;52.402;4.920;2023-04-24T14:51:34;9.65;;;3.83;;
17369;SDS011;8802;52.402;4.920;2023-04-24T14:54:03;9.80;;;4.10;;
17369;SDS011;8802;52.402;4.920;2023-04-24T14:56:30;14.00;;;4.00;;
17369;SDS011;8802;52.402;4.920;2023-04-24T14:58:57;8.60;;;3.50;;
17369;SDS011;8802;52.402;4.920;2023-04-24T15:01:23;9.30;;;3.60;;
17369;SDS011;8802;52.402;4.920;2023-04-24T15:03:50;12.13;;;4.25;;